Oriental Freesia — ZGCD7 — position and weather

sailwx.info

Track history (hours):
 
Tides and Currents Weather Stations Pressure Air Temp Water Temp Dewpoint Dewpoint Depression Visibility Wind Speed Wind Dir Waves Ship Positions

Oriental Freesia

Last reported at 2015-Jun-02 15:04 UTC. Time now 2015-Jul-06 00:56 UTC.
Position N 36°54' E 016°16'.
Warning: this ship's position is 33 days out of date.

Length 134 m; draft 5.5 m.

Type: Ship (hazmat cat A). MMSI: 319349000.

Date/timePositionNaut miles runAvg speedWind from/ knotsBaromVisibWave heightAir tempDewpointWater temp
2015-Jun-02 15:04N 36°54' E 016°16'39 0.9
2015-May-31 19:33N 37°09' E 015°32'  
2015-May-29 06:23N 40°44' E 028°44'1213.9
2015-May-29 05:32N 40°45' E 028°59'1313.8
2015-May-29 04:33N 40°44' E 029°17'1612.2
2015-May-29 03:14N 40°45' E 029°38'2 0.1
2015-May-28 03:16N 40°46' E 029°40'15 0.3
2015-May-26 02:33N 40°44' E 029°21'4 3.9
2015-May-26 01:33N 40°44' E 029°16'7 7.3
2015-May-26 00:33N 40°44' E 029°06'1211.9
2015-May-25 23:33N 40°43' E 028°50'229 9.5
2015-May-24 23:32N 37°42' E 025°51'1414.0
2015-May-24 22:33N 37°28' E 025°54'12513.2
2015-May-24 13:09N 35°50' E 027°29'912.5
2015-May-24 12:28N 35°45' E 027°37'1413.4
2015-May-24 11:26N 35°45' E 027°54'1213.3
2015-May-24 10:33N 35°45' E 028°09'  
Track history (hours):
 
Tides and Currents Weather Stations Pressure Air Temp Water Temp Dewpoint Dewpoint Depression Visibility Wind Speed Wind Dir Waves Ship Positions

Oriental Freesia

Last reported at 2015-Jun-02 15:04 UTC. Time now 2015-Jul-06 00:56 UTC.
Position N 36°54' E 016°16'.
Warning: this ship's position is 33 days out of date.

Length 134 m; draft 5.5 m.

Type: Ship (hazmat cat A). MMSI: 319349000.

Date/timePositionNaut miles runAvg speedWind from/ knotsBaromVisibWave heightAir tempDewpointWater temp
2015-Jun-02 15:04N 36°54' E 016°16'39 0.9
2015-May-31 19:33N 37°09' E 015°32'  
2015-May-29 06:23N 40°44' E 028°44'1213.9
2015-May-29 05:32N 40°45' E 028°59'1313.8
2015-May-29 04:33N 40°44' E 029°17'1612.2
2015-May-29 03:14N 40°45' E 029°38'2 0.1
2015-May-28 03:16N 40°46' E 029°40'15 0.3
2015-May-26 02:33N 40°44' E 029°21'4 3.9
2015-May-26 01:33N 40°44' E 029°16'7 7.3
2015-May-26 00:33N 40°44' E 029°06'1211.9
2015-May-25 23:33N 40°43' E 028°50'229 9.5
2015-May-24 23:32N 37°42' E 025°51'1414.0
2015-May-24 22:33N 37°28' E 025°54'12513.2
2015-May-24 13:09N 35°50' E 027°29'912.5
2015-May-24 12:28N 35°45' E 027°37'1413.4
2015-May-24 11:26N 35°45' E 027°54'1213.3
2015-May-24 10:33N 35°45' E 028°09'  

Dump ship's entire track history